Farris, Minnesota
Current Conditions -  °F | °C
As of 5:35 AM on Saturday 20 Dec 2014 (Local Time) from KY49 Reporting Station
Haze Haze  
Wind Chill: 20°   Ceiling: 400
Heat Index: 29°   Visibility: 3mi
Dew Point: 28°   Wind: 10mph
Humidity: 96%   Direction: 210°SSW
Pressure: 30.03"   Gusts: NA
Location:  47.3012°N, 94.5426°W
Report Text: KY49 201135Z AUTO 21009KT 3SM BR OVC004 M02/M02 A3003 RMK AO2 T10181023
Loading
Personal Weather Stations






























Interactive Weather Map New forecast layout! Learn more

10-Day Weather Forecast

Advertisements
Track Severe Weather on mobile